Time;durP1;ratioP1;P1;durP2;ratioP2;P2;SDS_P1;SDS_P2;PMS_P1;PMS_P2;Temp;Humidity;BMP_temperature;BMP_pressure;BME280_temperature;BME280_humidity;BME280_pressure;Samples;Min_cycle;Max_cycle;Signal;HPM_P1;HPM_P2
2022/08/30 00:02:35;;;;;;;5.32;4.35;;;15.70;99.90;;;;;;5052329;28;20515;-84
2022/08/30 00:05:01;;;;;;;5.40;3.50;;;15.60;99.90;;;;;;5044892;28;20068;-82
2022/08/30 00:07:27;;;;;;;6.03;3.40;;;15.70;99.90;;;;;;5027007;28;20091;-84
2022/08/30 00:09:52;;;;;;;4.32;3.67;;;15.70;99.90;;;;;;5039951;28;20029;-84
2022/08/30 00:12:19;;;;;;;4.35;3.30;;;15.70;99.90;;;;;;5015883;28;20064;-84
2022/08/30 00:14:46;;;;;;;3.88;3.38;;;15.80;99.90;;;;;;5038861;28;20549;-84
2022/08/30 00:17:11;;;;;;;4.75;3.72;;;15.80;99.90;;;;;;5036259;28;20399;-84
2022/08/30 00:19:37;;;;;;;6.18;3.72;;;15.80;99.90;;;;;;5042430;28;20044;-84
2022/08/30 00:22:05;;;;;;;7.15;3.05;;;15.80;99.90;;;;;;5051355;28;20409;-84
2022/08/30 00:24:31;;;;;;;6.13;3.40;;;15.70;99.90;;;;;;5051329;28;20052;-84
2022/08/30 00:26:57;;;;;;;4.93;3.70;;;15.80;99.90;;;;;;5051694;28;20037;-84
2022/08/30 00:29:22;;;;;;;5.22;3.83;;;15.80;99.90;;;;;;5042868;28;20399;-84
2022/08/30 00:31:48;;;;;;;3.55;2.78;;;15.70;99.90;;;;;;5034180;28;20033;-84
2022/08/30 00:34:15;;;;;;;5.60;3.00;;;15.70;99.90;;;;;;5015202;28;20403;-84
2022/08/30 00:36:41;;;;;;;5.72;3.17;;;15.60;99.90;;;;;;5031524;28;20064;-84
2022/08/30 00:39:07;;;;;;;6.45;3.17;;;15.70;99.90;;;;;;5031786;28;20081;-84
2022/08/30 00:41:33;;;;;;;6.40;3.60;;;15.60;99.90;;;;;;5046593;28;20091;-84
2022/08/30 00:43:59;;;;;;;5.05;3.40;;;15.60;99.90;;;;;;5034724;28;20041;-84
2022/08/30 00:46:26;;;;;;;5.75;3.40;;;15.60;99.90;;;;;;5050743;28;20491;-84
2022/08/30 00:48:52;;;;;;;3.80;2.75;;;15.60;99.90;;;;;;5042265;28;20045;-84
2022/08/30 00:51:20;;;;;;;5.35;3.80;;;15.60;99.90;;;;;;5038350;28;20084;-84
2022/08/30 00:53:49;;;;;;;3.65;3.08;;;15.60;99.90;;;;;;5031628;28;20427;-84
2022/08/30 00:56:16;;;;;;;5.90;3.65;;;15.50;99.90;;;;;;5031131;28;20124;-84
2022/08/30 00:58:47;;;;;;;6.60;3.85;;;15.40;99.90;;;;;;5017936;28;20045;-84
2022/08/30 01:01:13;;;;;;;5.35;2.80;;;15.40;99.90;;;;;;5038439;28;20049;-85
2022/08/30 01:03:40;;;;;;;6.00;3.35;;;15.40;99.90;;;;;;5031077;28;20060;-84
2022/08/30 01:06:06;;;;;;;5.22;3.15;;;15.40;99.90;;;;;;5031159;28;20042;-84
2022/08/30 01:08:32;;;;;;;4.68;3.00;;;15.30;99.90;;;;;;5037792;28;20063;-85
2022/08/30 01:10:59;;;;;;;5.28;3.55;;;15.30;99.90;;;;;;5043699;28;20044;-84
2022/08/30 01:13:26;;;;;;;4.32;2.63;;;15.40;99.90;;;;;;5018851;28;20052;-85
2022/08/30 01:15:53;;;;;;;3.50;3.08;;;15.30;99.90;;;;;;5035554;28;20231;-85
2022/08/30 01:18:19;;;;;;;5.32;3.75;;;15.30;99.90;;;;;;5043104;28;20062;-85
2022/08/30 01:21:07;;;;;;;4.55;3.22;;;15.30;99.90;;;;;;5044945;28;20042;-84
2022/08/30 01:23:35;;;;;;;7.95;4.32;;;15.20;99.90;;;;;;5032653;28;20653;-84
2022/08/30 01:26:03;;;;;;;7.18;4.57;;;15.10;99.90;;;;;;5037994;28;20089;-85
2022/08/30 01:28:29;;;;;;;5.07;3.80;;;15.10;99.90;;;;;;5054350;28;20108;-85
2022/08/30 01:30:55;;;;;;;8.40;3.55;;;15.10;99.90;;;;;;5044461;28;20028;-85
2022/08/30 01:33:21;;;;;;;7.40;5.05;;;15.10;99.90;;;;;;5018388;28;20423;-85
2022/08/30 01:35:55;;;;;;;6.32;4.47;;;15.10;99.90;;;;;;5023240;28;20040;-85
2022/08/30 01:38:25;;;;;;;6.25;5.22;;;15.00;99.90;;;;;;5033372;28;20043;-85
2022/08/30 01:41:00;;;;;;;6.65;4.65;;;15.00;99.90;;;;;;5042884;28;20036;-84
2022/08/30 01:43:26;;;;;;;4.60;3.60;;;14.90;99.90;;;;;;5034491;28;20041;-85
2022/08/30 01:45:52;;;;;;;7.95;4.75;;;14.90;99.90;;;;;;5018401;28;20534;-85
2022/08/30 01:48:18;;;;;;;4.85;4.32;;;14.80;99.90;;;;;;5026394;28;20036;-85
2022/08/30 01:50:43;;;;;;;4.38;3.47;;;14.80;99.90;;;;;;5021415;28;20059;-86
2022/08/30 01:53:09;;;;;;;7.60;4.93;;;14.70;99.90;;;;;;5018645;28;20515;-86
2022/08/30 01:55:37;;;;;;;5.40;4.45;;;14.70;99.90;;;;;;5018430;28;20029;-86
2022/08/30 01:58:03;;;;;;;5.82;4.10;;;14.70;99.90;;;;;;5023713;28;20032;-86
2022/08/30 02:00:29;;;;;;;4.63;4.10;;;14.60;99.90;;;;;;5037809;28;20032;-86
2022/08/30 02:02:56;;;;;;;6.25;4.05;;;14.60;99.90;;;;;;5054267;28;20033;-86
2022/08/30 02:05:22;;;;;;;7.32;4.40;;;14.60;99.90;;;;;;5026911;28;20033;-86
2022/08/30 02:07:48;;;;;;;4.75;3.90;;;14.60;99.90;;;;;;5021353;28;20058;-86
2022/08/30 02:10:14;;;;;;;3.88;3.35;;;14.50;99.90;;;;;;5053534;28;20479;-86
2022/08/30 02:12:39;;;;;;;6.20;3.90;;;14.50;99.90;;;;;;5054535;28;20110;-86
2022/08/30 02:15:06;;;;;;;6.15;4.30;;;14.50;99.90;;;;;;5054129;28;20117;-87
2022/08/30 02:17:32;;;;;;;5.95;5.13;;;14.50;99.90;;;;;;5042969;28;20046;-87
2022/08/30 02:19:57;;;;;;;7.70;4.72;;;14.50;99.90;;;;;;5041435;28;20513;-87
2022/08/30 02:22:23;;;;;;;5.93;4.07;;;14.40;99.90;;;;;;5042384;28;20076;-88
2022/08/30 02:24:49;;;;;;;6.03;4.60;;;14.50;99.90;;;;;;5058623;28;20415;-87
2022/08/30 02:27:14;;;;;;;9.60;4.32;;;14.40;99.90;;;;;;5041725;28;20043;-87
2022/08/30 02:29:40;;;;;;;4.75;3.53;;;14.40;99.90;;;;;;5033138;28;20059;-86
2022/08/30 02:32:05;;;;;;;4.78;3.90;;;14.40;99.90;;;;;;5058672;28;20047;-86
2022/08/30 02:34:31;;;;;;;4.90;4.40;;;14.40;99.90;;;;;;5058426;28;20033;-87
2022/08/30 02:36:57;;;;;;;5.82;4.35;;;14.40;99.90;;;;;;5058436;28;20036;-85
2022/08/30 02:39:23;;;;;;;7.43;4.47;;;14.40;99.90;;;;;;5041034;28;20072;-86
2022/08/30 02:41:48;;;;;;;7.15;3.83;;;14.40;99.90;;;;;;5041470;28;20037;-85
2022/08/30 02:44:14;;;;;;;6.35;4.13;;;14.30;99.90;;;;;;5058148;28;20460;-85
2022/08/30 02:46:40;;;;;;;4.30;3.90;;;14.40;99.90;;;;;;5041178;28;20067;-85
2022/08/30 02:49:07;;;;;;;5.28;4.22;;;14.40;99.90;;;;;;5057112;28;20082;-85
2022/08/30 02:51:33;;;;;;;5.95;4.25;;;14.40;99.90;;;;;;5055372;28;20487;-85
2022/08/30 02:53:59;;;;;;;7.63;5.05;;;14.30;99.90;;;;;;5037908;28;20037;-85
2022/08/30 02:56:27;;;;;;;7.70;4.22;;;14.20;99.90;;;;;;5031547;28;20094;-85
2022/08/30 02:58:53;;;;;;;4.53;3.72;;;14.10;99.90;;;;;;5040118;28;20041;-86
2022/08/30 03:01:19;;;;;;;7.57;4.03;;;14.10;99.90;;;;;;5057777;28;20127;-86
2022/08/30 03:03:45;;;;;;;4.35;3.47;;;14.10;99.90;;;;;;5057832;28;20127;-85
2022/08/30 03:06:13;;;;;;;4.25;3.67;;;14.10;99.90;;;;;;5057656;28;20041;-86
2022/08/30 03:08:38;;;;;;;6.47;3.90;;;14.00;99.90;;;;;;5037283;28;20091;-87
2022/08/30 03:11:05;;;;;;;5.85;4.15;;;14.00;99.90;;;;;;5057480;28;20068;-86
2022/08/30 03:13:30;;;;;;;5.10;3.95;;;13.90;99.90;;;;;;5041174;28;20355;-86
2022/08/30 03:15:56;;;;;;;7.95;5.22;;;13.90;99.90;;;;;;5041651;28;20108;-86
2022/08/30 03:18:23;;;;;;;6.65;5.55;;;13.90;99.90;;;;;;5040478;28;20115;-85
2022/08/30 03:20:49;;;;;;;6.20;4.47;;;13.80;99.90;;;;;;5031283;28;20052;-86
2022/08/30 03:23:16;;;;;;;7.03;6.18;;;13.70;99.90;;;;;;5037830;28;20049;-86
2022/08/30 03:25:41;;;;;;;6.38;5.68;;;13.60;99.90;;;;;;5037571;28;20430;-86
2022/08/30 03:28:07;;;;;;;10.38;6.55;;;13.50;99.90;;;;;;5034604;28;20033;-86
2022/08/30 03:30:33;;;;;;;11.73;6.32;;;13.50;99.90;;;;;;5040312;28;20047;-86
2022/08/30 03:33:00;;;;;;;8.90;5.60;;;13.40;99.90;;;;;;5057503;28;20040;-86
2022/08/30 03:35:29;;;;;;;8.80;6.75;;;13.30;99.90;;;;;;5040915;28;20067;-86
2022/08/30 03:37:54;;;;;;;8.68;6.10;;;13.30;99.90;;;;;;5056262;28;20051;-86
2022/08/30 03:40:21;;;;;;;7.53;5.50;;;13.30;99.90;;;;;;5040364;28;20032;-86
2022/08/30 03:42:47;;;;;;;7.78;5.72;;;13.20;99.90;;;;;;5024915;28;20029;-86
2022/08/30 03:45:15;;;;;;;8.85;7.13;;;13.20;99.90;;;;;;5020704;28;20045;-86
2022/08/30 03:47:41;;;;;;;6.88;6.18;;;13.10;99.90;;;;;;5025741;28;20127;-85
2022/08/30 03:50:08;;;;;;;8.57;5.97;;;13.00;99.90;;;;;;5039985;28;20051;-86
2022/08/30 03:52:34;;;;;;;8.52;6.35;;;13.00;99.90;;;;;;5040294;28;20036;-85
2022/08/30 03:55:00;;;;;;;8.10;6.22;;;13.00;99.90;;;;;;5040389;28;20082;-86
2022/08/30 03:57:26;;;;;;;7.57;6.78;;;13.00;99.90;;;;;;5037137;28;20048;-86
2022/08/30 03:59:52;;;;;;;10.57;6.80;;;13.00;99.90;;;;;;5039988;28;20040;-85
2022/08/30 04:02:18;;;;;;;9.70;6.82;;;12.90;99.90;;;;;;5056785;28;20041;-85
2022/08/30 04:04:44;;;;;;;7.63;6.93;;;12.90;99.90;;;;;;5037268;28;20096;-85
2022/08/30 04:07:10;;;;;;;7.68;6.65;;;12.90;99.90;;;;;;5052429;28;20124;-85
2022/08/30 04:09:35;;;;;;;12.88;7.32;;;12.80;99.90;;;;;;5036799;28;20498;-83
2022/08/30 04:12:01;;;;;;;9.35;7.55;;;12.80;99.90;;;;;;5036496;28;20130;-83
2022/08/30 04:14:27;;;;;;;10.55;6.43;;;12.80;99.90;;;;;;5036406;28;20034;-83
2022/08/30 04:16:52;;;;;;;7.22;6.40;;;12.80;99.90;;;;;;5019192;28;20115;-83
2022/08/30 04:19:18;;;;;;;7.88;5.85;;;12.60;99.90;;;;;;5035757;28;20147;-82
2022/08/30 04:21:44;;;;;;;7.75;5.72;;;12.60;99.90;;;;;;5036638;28;20048;-82
2022/08/30 04:24:10;;;;;;;6.72;5.57;;;12.50;99.90;;;;;;5037131;28;20037;-81
2022/08/30 04:26:36;;;;;;;8.50;7.15;;;12.50;99.90;;;;;;5059123;28;20033;-81
2022/08/30 04:29:02;;;;;;;8.75;6.80;;;12.40;99.90;;;;;;5041960;28;20075;-82
2022/08/30 04:31:28;;;;;;;10.68;7.43;;;12.40;99.90;;;;;;5034565;28;20033;-81
2022/08/30 04:33:54;;;;;;;9.80;7.05;;;12.40;99.90;;;;;;5058469;28;20032;-81
2022/08/30 04:36:19;;;;;;;9.00;6.40;;;12.30;99.90;;;;;;5058603;28;20080;-82
2022/08/30 04:38:45;;;;;;;11.73;7.32;;;12.30;99.90;;;;;;5054623;28;20048;-82
2022/08/30 04:41:15;;;;;;;10.05;7.03;;;12.30;99.90;;;;;;5035997;28;20128;-82
2022/08/30 04:43:42;;;;;;;12.10;6.45;;;12.30;99.90;;;;;;5018628;28;20490;-83
2022/08/30 04:46:08;;;;;;;8.02;6.45;;;12.30;99.90;;;;;;5036016;28;20380;-82
2022/08/30 04:48:35;;;;;;;10.32;7.18;;;12.20;99.90;;;;;;5018456;28;20041;-82
2022/08/30 04:51:04;;;;;;;8.48;7.45;;;12.20;99.90;;;;;;5034682;28;20043;-82
2022/08/30 04:53:30;;;;;;;8.57;7.47;;;12.20;99.90;;;;;;5035929;28;20041;-82
2022/08/30 04:55:56;;;;;;;10.00;9.00;;;12.20;99.90;;;;;;5032831;28;20098;-81
2022/08/30 04:58:22;;;;;;;10.98;8.18;;;12.20;99.90;;;;;;5016842;28;20049;-81
2022/08/30 05:00:48;;;;;;;11.82;9.75;;;12.20;99.90;;;;;;5026581;28;20120;-82
2022/08/30 05:03:14;;;;;;;9.98;8.00;;;12.20;99.90;;;;;;5035400;28;20045;-82
2022/08/30 05:05:45;;;;;;;11.63;8.38;;;12.20;99.90;;;;;;5035741;28;20049;-81
2022/08/30 05:08:13;;;;;;;10.48;8.80;;;12.20;99.90;;;;;;5045719;28;20076;-82
2022/08/30 05:10:44;;;;;;;7.60;6.78;;;12.30;99.90;;;;;;5054931;28;20036;-81
2022/08/30 05:13:11;;;;;;;9.52;8.43;;;12.30;99.90;;;;;;5035529;28;20098;-82
2022/08/30 05:15:38;;;;;;;8.77;7.35;;;12.30;99.90;;;;;;5047947;28;20505;-82
2022/08/30 05:18:06;;;;;;;10.40;7.63;;;12.20;99.90;;;;;;5037916;28;20494;-82
2022/08/30 05:20:32;;;;;;;8.48;7.53;;;12.20;99.90;;;;;;5022876;28;20430;-82
2022/08/30 05:22:57;;;;;;;9.23;6.75;;;12.20;99.90;;;;;;5018568;28;20033;-82
2022/08/30 05:25:25;;;;;;;8.85;6.85;;;12.20;99.90;;;;;;5034993;28;20128;-82
2022/08/30 05:27:52;;;;;;;10.65;7.30;;;12.20;99.90;;;;;;5034591;28;20838;-82
2022/08/30 05:30:19;;;;;;;9.02;6.90;;;12.30;99.90;;;;;;5039508;28;20060;-80
2022/08/30 05:32:44;;;;;;;8.73;7.72;;;12.30;99.90;;;;;;5063604;28;20036;-80
2022/08/30 05:35:12;;;;;;;12.13;9.75;;;12.30;99.90;;;;;;5062188;28;20116;-80
2022/08/30 05:37:37;;;;;;;8.70;6.95;;;12.40;99.90;;;;;;5062101;28;20047;-81
2022/08/30 05:40:05;;;;;;;16.10;9.82;;;12.40;99.90;;;;;;5062616;28;20040;-80
2022/08/30 05:42:31;;;;;;;10.82;7.45;;;12.40;99.90;;;;;;5045139;28;20041;-80
2022/08/30 05:44:57;;;;;;;9.75;7.95;;;12.50;99.90;;;;;;5044534;28;20033;-82
2022/08/30 05:47:23;;;;;;;9.85;8.93;;;12.60;99.90;;;;;;5060836;28;20071;-79
2022/08/30 05:49:48;;;;;;;9.55;7.47;;;12.70;99.90;;;;;;5060444;28;20402;-83
2022/08/30 05:52:17;;;;;;;9.18;6.90;;;12.80;99.90;;;;;;5055124;28;20033;-82
2022/08/30 05:54:43;;;;;;;11.25;6.10;;;12.80;99.90;;;;;;5054158;28;20079;-83
2022/08/30 05:57:09;;;;;;;11.55;7.78;;;12.90;99.90;;;;;;5054217;28;20071;-83
2022/08/30 05:59:35;;;;;;;8.00;7.20;;;13.00;99.90;;;;;;5036288;28;20044;-83
2022/08/30 06:02:01;;;;;;;9.75;6.25;;;13.10;99.90;;;;;;5018194;28;20124;-83
2022/08/30 06:04:26;;;;;;;7.07;5.75;;;13.20;99.90;;;;;;5034444;28;20064;-84
2022/08/30 06:06:52;;;;;;;11.35;6.60;;;13.30;99.90;;;;;;5032925;28;20048;-83
2022/08/30 06:09:18;;;;;;;6.45;5.80;;;13.40;99.90;;;;;;5093153;23;20079;-79
2022/08/30 06:11:44;;;;;;;8.75;5.70;;;13.50;99.90;;;;;;5076711;28;20042;-78
2022/08/30 06:14:10;;;;;;;6.90;4.97;;;13.60;99.90;;;;;;5093505;28;20036;-78
2022/08/30 06:16:38;;;;;;;9.32;5.35;;;13.80;99.90;;;;;;5076125;28;20056;-78
2022/08/30 06:19:07;;;;;;;6.75;5.75;;;13.90;99.90;;;;;;5056879;28;20068;-78
2022/08/30 06:21:35;;;;;;;6.22;4.40;;;14.00;99.90;;;;;;5053494;28;20055;-80
2022/08/30 06:24:07;;;;;;;5.75;4.35;;;14.00;99.90;;;;;;5053327;28;20131;-79
2022/08/30 06:26:40;;;;;;;7.10;4.55;;;14.20;99.90;;;;;;5054564;28;20033;-80
2022/08/30 06:29:06;;;;;;;5.00;4.47;;;14.30;99.90;;;;;;5062355;28;20037;-79
2022/08/30 06:31:32;;;;;;;4.22;3.83;;;14.40;99.90;;;;;;5085141;28;20044;-79
2022/08/30 06:33:58;;;;;;;4.07;3.55;;;14.50;99.90;;;;;;5083249;28;20036;-80
2022/08/30 06:36:25;;;;;;;3.80;3.25;;;14.60;99.90;;;;;;5074602;28;20047;-80
2022/08/30 06:38:54;;;;;;;7.05;3.63;;;14.70;99.90;;;;;;5074459;28;20047;-81
2022/08/30 06:41:23;;;;;;;6.55;4.28;;;14.80;99.90;;;;;;5075275;28;20181;-80
2022/08/30 06:43:49;;;;;;;6.90;4.00;;;14.90;99.90;;;;;;5074690;28;20119;-80
2022/08/30 06:46:18;;;;;;;5.80;3.70;;;15.00;99.90;;;;;;5054775;28;20044;-80
2022/08/30 06:48:44;;;;;;;7.03;3.38;;;15.10;99.90;;;;;;5053983;28;20120;-80
2022/08/30 06:51:10;;;;;;;3.75;3.05;;;15.20;99.90;;;;;;5053483;28;20562;-79
2022/08/30 06:53:35;;;;;;;4.63;2.83;;;15.30;99.90;;;;;;5037748;28;20140;-80
2022/08/30 06:56:07;;;;;;;4.80;2.85;;;15.50;99.90;;;;;;5053879;28;20090;-80
2022/08/30 06:58:34;;;;;;;4.05;2.90;;;15.50;99.90;;;;;;5054547;28;20100;-80
2022/08/30 07:01:00;;;;;;;2.20;1.80;;;15.70;99.90;;;;;;5072691;28;20411;-79
2022/08/30 07:03:26;;;;;;;2.88;1.52;;;15.80;99.90;;;;;;5073132;28;20461;-77
2022/08/30 07:05:53;;;;;;;5.38;2.00;;;15.90;99.90;;;;;;5073827;28;20067;-78
2022/08/30 07:08:19;;;;;;;2.30;1.10;;;16.00;99.90;;;;;;5076623;28;20413;-77
2022/08/30 07:10:45;;;;;;;2.97;1.60;;;16.10;99.90;;;;;;5076471;28;20040;-77
2022/08/30 07:13:11;;;;;;;3.13;1.52;;;16.30;99.90;;;;;;5059908;28;20036;-78
2022/08/30 07:15:41;;;;;;;5.68;1.67;;;16.40;99.90;;;;;;5076308;28;20028;-78
2022/08/30 07:20:51;;;;;;;4.53;1.00;;;16.60;99.90;;;;;;5075992;28;20048;-78
2022/08/30 07:23:17;;;;;;;2.90;1.00;;;16.90;99.90;;;;;;5076540;28;20119;-78
2022/08/30 07:25:43;;;;;;;2.47;0.65;;;17.10;99.90;;;;;;5076511;28;20472;-80
2022/08/30 07:28:09;;;;;;;1.40;0.35;;;17.40;99.90;;;;;;5076518;28;20044;-78
2022/08/30 07:30:35;;;;;;;3.70;0.73;;;17.60;99.90;;;;;;5057148;28;20033;-78
2022/08/30 07:33:01;;;;;;;2.53;0.65;;;17.80;99.90;;;;;;5055967;28;20045;-78
2022/08/30 07:35:27;;;;;;;4.82;1.17;;;18.10;99.90;;;;;;5039554;28;20036;-79
2022/08/30 07:37:52;;;;;;;3.17;0.50;;;18.20;99.90;;;;;;5056255;28;20564;-79
2022/08/30 07:40:18;;;;;;;1.85;0.60;;;18.40;99.90;;;;;;5055940;28;20040;-79
2022/08/30 07:42:44;;;;;;;2.38;0.45;;;18.60;99.90;;;;;;5057306;28;20040;-80
2022/08/30 07:45:11;;;;;;;2.35;0.50;;;18.70;99.90;;;;;;5073469;28;20040;-80
2022/08/30 07:47:36;;;;;;;1.52;0.40;;;18.90;99.90;;;;;;5075686;28;20135;-77
2022/08/30 07:50:04;;;;;;;1.17;0.50;;;19.00;99.90;;;;;;5075633;28;20123;-78
2022/08/30 07:52:30;;;;;;;4.22;0.40;;;19.00;99.90;;;;;;5076153;28;20032;-79
2022/08/30 07:54:56;;;;;;;1.67;0.60;;;19.20;99.90;;;;;;5075905;28;20507;-80
2022/08/30 07:57:23;;;;;;;1.02;0.30;;;19.30;99.90;;;;;;5058891;28;20044;-79
2022/08/30 07:59:49;;;;;;;1.73;0.30;;;19.50;99.90;;;;;;5074963;28;20052;-79
2022/08/30 08:02:15;;;;;;;1.63;0.40;;;19.70;99.90;;;;;;5075817;28;20047;-79
2022/08/30 08:04:41;;;;;;;1.42;0.40;;;19.90;99.90;;;;;;5075483;28;20039;-79
2022/08/30 08:07:06;;;;;;;2.78;0.32;;;19.90;99.90;;;;;;5075492;28;20048;-78
2022/08/30 08:09:34;;;;;;;2.60;0.32;;;19.90;99.90;;;;;;5075229;28;20040;-79
2022/08/30 08:11:59;;;;;;;1.67;0.30;;;19.80;99.90;;;;;;5075352;28;20119;-79
2022/08/30 08:14:26;;;;;;;1.35;0.50;;;19.90;99.90;;;;;;5075714;28;20379;-78
2022/08/30 08:16:51;;;;;;;1.00;0.30;;;19.90;99.90;;;;;;5075021;28;20052;-78
2022/08/30 08:19:18;;;;;;;2.17;0.43;;;20.00;99.90;;;;;;5075161;28;20040;-77
2022/08/30 08:21:44;;;;;;;2.10;0.28;;;20.10;99.90;;;;;;5058636;28;20129;-77
2022/08/30 08:24:10;;;;;;;3.10;0.30;;;20.00;99.90;;;;;;5075040;28;20541;-77
2022/08/30 08:26:37;;;;;;;1.42;0.35;;;20.10;99.90;;;;;;5075052;28;20084;-77
2022/08/30 08:29:05;;;;;;;1.25;0.20;;;20.40;99.90;;;;;;5074360;28;20044;-77
2022/08/30 08:31:31;;;;;;;1.05;0.20;;;20.60;99.90;;;;;;5074973;28;20092;-77
2022/08/30 08:33:58;;;;;;;0.57;0.20;;;20.70;99.90;;;;;;5075011;28;20122;-77
2022/08/30 08:36:25;;;;;;;2.03;0.30;;;20.70;99.90;;;;;;5074840;28;20096;-77
2022/08/30 08:38:51;;;;;;;0.70;0.22;;;20.80;99.90;;;;;;5074561;28;20044;-78
2022/08/30 08:41:54;;;;;;;2.55;0.25;;;20.90;99.90;;;;;;5074546;28;20086;-77
2022/08/30 08:44:46;;;;;;;1.38;0.40;;;21.10;99.90;;;;;;5092880;28;20051;-77
2022/08/30 08:47:23;;;;;;;1.52;0.20;;;21.20;99.90;;;;;;5074020;28;20154;-77
2022/08/30 08:49:53;;;;;;;1.80;0.28;;;21.50;99.90;;;;;;5054755;28;20505;-78
2022/08/30 08:55:15;;;;;;;1.65;0.20;;;21.70;99.90;;;;;;5054416;28;20490;-77
2022/08/30 08:57:41;;;;;;;0.65;0.20;;;21.90;99.90;;;;;;5054377;28;20563;-77
2022/08/30 09:00:10;;;;;;;2.72;0.20;;;22.10;99.90;;;;;;5054274;28;20072;-77
2022/08/30 09:02:40;;;;;;;0.85;0.10;;;22.40;99.90;;;;;;5055963;28;20044;-77
2022/08/30 09:05:07;;;;;;;1.88;0.20;;;22.50;99.30;;;;;;5071814;28;20044;-77
2022/08/30 09:07:37;;;;;;;1.35;0.20;;;22.50;97.80;;;;;;5074163;28;20486;-78
2022/08/30 09:10:03;;;;;;;1.13;0.30;;;22.30;95.60;;;;;;5073981;28;20036;-77
2022/08/30 09:12:29;;;;;;;1.15;0.20;;;22.30;97.10;;;;;;5074162;28;20036;-77
2022/08/30 09:15:04;;;;;;;1.90;0.20;;;22.30;97.00;;;;;;5074257;28;20044;-78
2022/08/30 09:17:47;;;;;;;;;;;22.30;96.90;;;;;;5074113;28;20097;-78
2022/08/30 09:20:28;;;;;;;2.33;0.25;;;22.40;94.70;;;;;;5057451;28;19916;-77
2022/08/30 09:22:54;;;;;;;0.95;0.40;;;22.40;95.30;;;;;;5074274;28;20040;-77
2022/08/30 09:25:28;;;;;;;0.70;0.20;;;22.50;97.10;;;;;;5074075;28;20132;-77
2022/08/30 09:28:08;;;;;;;1.17;0.20;;;22.60;92.70;;;;;;5073419;28;20047;-78
2022/08/30 09:30:34;;;;;;;1.58;0.20;;;22.70;95.30;;;;;;5073543;28;20122;-78
2022/08/30 09:33:06;;;;;;;3.30;0.50;;;22.80;94.60;;;;;;5062577;28;20041;-77
2022/08/30 09:35:46;;;;;;;0.95;0.20;;;22.90;91.40;;;;;;5053866;28;20040;-78
2022/08/30 09:38:22;;;;;;;1.77;0.20;;;22.90;91.60;;;;;;5053039;28;20048;-78
2022/08/30 09:40:59;;;;;;;1.13;0.10;;;23.00;92.90;;;;;;5053717;28;20064;-78
2022/08/30 09:43:30;;;;;;;0.73;0.20;;;23.00;86.70;;;;;;5053875;28;20059;-78
2022/08/30 09:45:59;;;;;;;1.67;0.20;;;23.00;90.10;;;;;;5053524;28;20048;-78
2022/08/30 09:48:39;;;;;;;1.52;0.20;;;23.10;88.70;;;;;;5054005;28;20074;-78
2022/08/30 09:51:13;;;;;;;1.95;0.20;;;23.10;86.10;;;;;;5053695;28;20296;-77
2022/08/30 09:54:08;;;;;;;1.55;0.20;;;23.20;89.00;;;;;;5053610;28;20040;-77
2022/08/30 09:57:11;;;;;;;1.55;0.20;;;23.40;84.60;;;;;;5053977;28;20045;-78
2022/08/30 09:59:56;;;;;;;0.57;0.10;;;23.40;82.10;;;;;;5063546;28;20056;-77
2022/08/30 10:02:59;;;;;;;2.38;0.40;;;23.30;84.20;;;;;;5071155;28;20093;-77
2022/08/30 10:05:43;;;;;;;3.25;0.32;;;23.40;83.60;;;;;;5055168;28;20127;-77
2022/08/30 10:08:20;;;;;;;0.90;0.20;;;23.60;78.10;;;;;;5053180;28;20048;-79
2022/08/30 10:10:58;;;;;;;0.70;0.20;;;23.80;78.10;;;;;;5053106;28;20097;-78
2022/08/30 10:13:58;;;;;;;1.02;0.20;;;24.10;74.90;;;;;;5036813;28;20118;-78
2022/08/30 10:16:47;;;;;;;2.33;0.20;;;24.00;71.30;;;;;;5056336;28;20470;-78
2022/08/30 10:19:28;;;;;;;0.50;0.20;;;23.80;73.80;;;;;;5073026;28;20044;-78
2022/08/30 10:22:07;;;;;;;0.95;0.10;;;23.80;75.50;;;;;;5073293;28;20123;-78
2022/08/30 10:24:45;;;;;;;1.25;0.30;;;24.00;75.50;;;;;;5091232;28;20048;-78
2022/08/30 10:27:35;;;;;;;0.55;0.20;;;24.30;74.90;;;;;;5073116;28;20036;-78
2022/08/30 10:30:04;;;;;;;1.27;0.20;;;24.40;74.20;;;;;;5022620;28;20570;-79
2022/08/30 10:32:52;;;;;;;1.60;0.20;;;24.50;74.30;;;;;;5056422;28;20044;-78
2022/08/30 10:35:22;;;;;;;0.95;0.20;;;24.80;69.90;;;;;;5073275;28;20086;-78
2022/08/30 10:37:51;;;;;;;2.33;0.20;;;24.90;71.10;;;;;;5073091;28;20044;-78
2022/08/30 10:43:21;;;;;;;4.97;0.40;;;24.50;71.60;;;;;;5077038;28;20060;-78
2022/08/30 10:45:49;;;;;;;0.82;0.20;;;24.70;72.00;;;;;;5076920;28;20048;-78
2022/08/30 10:48:27;;;;;;;2.00;0.28;;;24.80;70.40;;;;;;5076922;28;20047;-78
2022/08/30 10:50:57;;;;;;;1.20;0.20;;;24.70;68.40;;;;;;5076675;28;20087;-78
2022/08/30 10:53:44;;;;;;;2.35;0.30;;;24.80;71.00;;;;;;5076667;28;20040;-78
2022/08/30 10:56:14;;;;;;;2.05;0.20;;;25.00;68.70;;;;;;5076769;28;20044;-78
2022/08/30 10:58:41;;;;;;;0.52;0.20;;;24.80;70.00;;;;;;5076780;28;20564;-78
2022/08/30 11:01:34;;;;;;;0.68;0.20;;;24.70;71.00;;;;;;5076722;28;20055;-78
2022/08/30 11:04:27;;;;;;;0.60;0.30;;;25.00;68.80;;;;;;5076820;28;20221;-77
2022/08/30 11:07:09;;;;;;;1.27;0.10;;;25.30;68.60;;;;;;5076643;28;20072;-78
2022/08/30 11:09:56;;;;;;;2.38;0.15;;;25.40;67.90;;;;;;5074517;28;20055;-78
2022/08/30 11:12:53;;;;;;;0.73;0.20;;;25.20;66.40;;;;;;5060020;28;20048;-78
2022/08/30 11:15:25;;;;;;;1.42;0.10;;;25.20;67.80;;;;;;5076393;28;20040;-78
2022/08/30 11:17:59;;;;;;;1.92;0.13;;;25.50;69.20;;;;;;5076559;28;20043;-78
2022/08/30 11:20:34;;;;;;;1.77;0.30;;;25.70;66.50;;;;;;5075995;28;20051;-78
2022/08/30 11:23:05;;;;;;;;;;;25.60;67.80;;;;;;5070170;28;20044;-78
2022/08/30 11:25:52;;;;;;;1.05;0.10;;;25.40;65.10;;;;;;5056622;28;20279;-78
2022/08/30 11:28:36;;;;;;;0.40;0.10;;;25.50;68.10;;;;;;5056197;28;20056;-78
2022/08/30 11:31:19;;;;;;;0.97;0.30;;;25.70;67.90;;;;;;5055941;28;20123;-79
2022/08/30 11:33:54;;;;;;;1.13;0.13;;;25.90;68.20;;;;;;5056315;28;20052;-79
2022/08/30 11:36:29;;;;;;;1.10;0.20;;;26.10;66.90;;;;;;5056239;28;20378;-78
2022/08/30 11:38:54;;;;;;;1.95;0.20;;;26.50;64.60;;;;;;5055949;28;20052;-79
2022/08/30 11:41:42;;;;;;;0.93;0.30;;;26.40;63.20;;;;;;5057127;28;20513;-78
2022/08/30 11:44:32;;;;;;;1.88;0.25;;;26.30;62.80;;;;;;5056070;28;20075;-78
2022/08/30 11:47:00;;;;;;;2.03;0.10;;;26.30;64.10;;;;;;5055146;28;20086;-78
2022/08/30 11:49:37;;;;;;;0.65;0.10;;;26.30;64.20;;;;;;5055775;28;20485;-78
2022/08/30 11:52:35;;;;;;;1.02;0.20;;;26.60;64.10;;;;;;5055134;28;20032;-78
2022/08/30 11:55:36;;;;;;;1.65;0.20;;;26.70;62.90;;;;;;5055696;28;20044;-78
2022/08/30 11:58:31;;;;;;;0.90;0.10;;;26.80;61.80;;;;;;5055817;28;20044;-77
2022/08/30 12:01:24;;;;;;;1.98;0.30;;;26.60;62.00;;;;;;5055456;28;20124;-78
2022/08/30 12:04:01;;;;;;;0.60;0.10;;;26.60;63.70;;;;;;5055674;28;20105;-78
2022/08/30 12:06:39;;;;;;;0.90;0.25;;;26.60;62.70;;;;;;5073365;28;20053;-78
2022/08/30 12:09:10;;;;;;;0.88;0.20;;;26.70;61.30;;;;;;5096854;23;20131;-81
2022/08/30 12:11:37;;;;;;;0.85;0.35;;;26.90;62.70;;;;;;5074335;28;20397;-82
2022/08/30 12:14:04;;;;;;;0.57;0.20;;;26.90;62.00;;;;;;5081364;28;20048;-81
2022/08/30 12:18:26;;;;;;;2.05;0.20;;;26.80;62.20;;;;;;5085769;28;20054;-80
2022/08/30 12:19:25;;;;;;;1.48;0.10;;;26.80;61.90;;;;;;5069987;28;20051;-80
2022/08/30 12:21:56;;;;;;;1.55;0.10;;;27.00;60.70;;;;;;5065355;28;20040;-81
2022/08/30 12:24:31;;;;;;;0.65;0.10;;;27.20;59.00;;;;;;5065266;28;20407;-81
2022/08/30 12:26:58;;;;;;;0.30;0.15;;;27.30;60.10;;;;;;5064816;28;20418;-81
2022/08/30 12:29:28;;;;;;;0.35;0.20;;;27.30;60.40;;;;;;5063857;28;20068;-81
2022/08/30 12:32:13;;;;;;;0.50;0.20;;;27.80;60.20;;;;;;5063956;28;20203;-81
2022/08/30 12:34:39;;;;;;;0.40;0.10;;;27.80;57.60;;;;;;5064094;28;20446;-81
2022/08/30 12:37:22;;;;;;;0.90;0.00;;;27.40;57.40;;;;;;5064446;28;20049;-82
2022/08/30 12:39:59;;;;;;;1.20;0.20;;;27.30;58.10;;;;;;5064209;28;20045;-81
2022/08/30 12:42:31;;;;;;;0.40;0.10;;;26.90;59.60;;;;;;5064944;28;20048;-81
2022/08/30 12:45:01;;;;;;;0.40;0.20;;;26.40;60.00;;;;;;5045623;28;20487;-81
2022/08/30 12:47:36;;;;;;;0.68;0.10;;;26.00;60.70;;;;;;5058094;28;20048;-81
2022/08/30 12:50:03;;;;;;;1.50;0.08;;;25.60;60.90;;;;;;5054908;28;20108;-83
2022/08/30 12:52:41;;;;;;;0.63;0.10;;;25.20;62.50;;;;;;5047588;28;20037;-83
2022/08/30 12:55:22;;;;;;;0.95;0.30;;;25.40;63.60;;;;;;5056063;28;20045;-82
2022/08/30 12:58:04;;;;;;;0.50;0.10;;;25.80;63.40;;;;;;5052523;28;20048;-82
2022/08/30 13:00:40;;;;;;;0.50;0.10;;;26.60;62.00;;;;;;5034966;28;20073;-82
2022/08/30 13:03:32;;;;;;;1.95;0.20;;;26.70;61.20;;;;;;5036101;28;20149;-82
2022/08/30 13:05:58;;;;;;;3.00;0.15;;;26.50;60.60;;;;;;5039597;28;20114;-82
2022/08/30 13:08:35;;;;;;;0.60;0.40;;;26.10;62.00;;;;;;5052808;28;20041;-82
2022/08/30 13:11:08;;;;;;;1.85;0.20;;;26.30;62.60;;;;;;5043664;28;20136;-82